Time;durP1;ratioP1;P1;durP2;ratioP2;P2;SDS_P1;SDS_P2;PMS_P1;PMS_P2;Temp;Humidity;BMP_temperature;BMP_pressure;BME280_temperature;BME280_humidity;BME280_pressure;Samples;Min_cycle;Max_cycle;Signal;HPM_P1;HPM_P2
2023/03/05 00:00:08;;;;;;;10.98;6.63;;;5.80;99.90;;;;;;5034419;28;20049;-60
2023/03/05 00:02:38;;;;;;;15.13;6.40;;;5.80;99.90;;;;;;5032872;28;20038;-59
2023/03/05 00:05:05;;;;;;;8.60;6.10;;;5.80;99.90;;;;;;5033243;28;20048;-59
2023/03/05 00:07:32;;;;;;;13.75;6.63;;;5.70;99.90;;;;;;5034293;28;20120;-58
2023/03/05 00:09:59;;;;;;;10.60;5.90;;;5.70;99.90;;;;;;5034429;28;20045;-61
2023/03/05 00:12:26;;;;;;;11.40;6.25;;;5.70;99.90;;;;;;5033723;28;20045;-58
2023/03/05 00:14:52;;;;;;;12.40;6.32;;;5.70;99.90;;;;;;5034342;28;20053;-59
2023/03/05 00:17:19;;;;;;;11.07;6.90;;;5.70;99.90;;;;;;5033822;28;20381;-58
2023/03/05 00:19:46;;;;;;;14.40;6.55;;;5.70;99.90;;;;;;5033038;28;20043;-60
2023/03/05 00:22:13;;;;;;;11.82;6.68;;;5.70;99.90;;;;;;5033834;28;20164;-60
2023/03/05 00:24:39;;;;;;;12.20;6.53;;;5.70;99.90;;;;;;5034221;28;20037;-60
2023/03/05 00:27:06;;;;;;;9.98;6.57;;;5.70;99.90;;;;;;5033532;28;20037;-59
2023/03/05 00:29:33;;;;;;;12.20;6.63;;;5.70;99.90;;;;;;5034242;28;20127;-60
2023/03/05 00:32:00;;;;;;;11.15;6.53;;;5.70;99.90;;;;;;5034201;28;20095;-60
2023/03/05 00:34:28;;;;;;;14.10;6.88;;;5.70;99.90;;;;;;5033943;28;20400;-59
2023/03/05 00:36:55;;;;;;;12.07;6.75;;;5.70;99.90;;;;;;5033632;28;20475;-60
2023/03/05 00:39:23;;;;;;;11.77;6.60;;;5.70;99.90;;;;;;5032542;28;20051;-60
2023/03/05 00:41:50;;;;;;;9.00;6.28;;;5.70;99.90;;;;;;5031926;28;20045;-59
2023/03/05 00:44:16;;;;;;;10.20;6.55;;;5.70;99.90;;;;;;5026269;28;20045;-56
2023/03/05 00:46:43;;;;;;;12.98;6.55;;;5.70;99.90;;;;;;5034037;28;20041;-58
2023/03/05 00:49:10;;;;;;;10.85;6.50;;;5.70;99.90;;;;;;5031781;28;20045;-56
2023/03/05 00:51:37;;;;;;;13.55;6.95;;;5.70;99.90;;;;;;5033889;28;20041;-59
2023/03/05 00:54:04;;;;;;;12.85;6.20;;;5.70;99.90;;;;;;5025402;28;20057;-59
2023/03/05 00:56:31;;;;;;;9.15;6.50;;;5.70;99.90;;;;;;5033709;28;20132;-59
2023/03/05 00:58:58;;;;;;;12.60;6.80;;;5.70;99.90;;;;;;5032849;28;20427;-60
2023/03/05 01:01:25;;;;;;;12.50;6.72;;;5.60;99.90;;;;;;5033592;28;20095;-55
2023/03/05 01:03:51;;;;;;;12.18;7.13;;;5.60;99.90;;;;;;5033075;28;20041;-55
2023/03/05 01:06:18;;;;;;;14.15;7.38;;;5.60;99.90;;;;;;5032282;28;20061;-57
2023/03/05 01:08:45;;;;;;;13.68;6.70;;;5.60;99.90;;;;;;5033000;28;20041;-59
2023/03/05 01:11:12;;;;;;;12.82;7.05;;;5.60;99.90;;;;;;5032171;28;20056;-59
2023/03/05 01:13:40;;;;;;;9.35;6.20;;;5.60;99.90;;;;;;5033034;28;20057;-56
2023/03/05 01:16:07;;;;;;;13.10;6.80;;;5.60;99.90;;;;;;5033513;28;20202;-57
2023/03/05 01:18:33;;;;;;;10.65;6.65;;;5.60;99.90;;;;;;5033332;28;20045;-60
2023/03/05 01:21:00;;;;;;;10.23;6.80;;;5.60;99.90;;;;;;5032018;28;20088;-59
2023/03/05 01:23:27;;;;;;;11.57;7.18;;;5.60;99.90;;;;;;5031976;28;20080;-59
2023/03/05 01:25:54;;;;;;;13.68;7.18;;;5.60;99.90;;;;;;5033394;28;20045;-58
2023/03/05 01:28:21;;;;;;;11.48;7.30;;;5.70;99.90;;;;;;5033215;28;20057;-57
2023/03/05 01:30:48;;;;;;;10.75;7.13;;;5.60;99.90;;;;;;5032519;28;20040;-60
2023/03/05 01:33:15;;;;;;;11.38;7.10;;;5.70;99.90;;;;;;5033112;28;20056;-57
2023/03/05 01:35:41;;;;;;;13.23;7.03;;;5.70;99.90;;;;;;5031654;28;20042;-56
2023/03/05 01:38:08;;;;;;;9.55;6.43;;;5.60;99.90;;;;;;5031706;28;20092;-57
2023/03/05 01:40:35;;;;;;;9.88;6.70;;;5.60;99.90;;;;;;5032785;28;20041;-54
2023/03/05 01:43:01;;;;;;;12.77;7.07;;;5.60;99.90;;;;;;5032764;28;20046;-57
2023/03/05 01:45:28;;;;;;;10.32;7.10;;;5.50;99.90;;;;;;5032688;28;20082;-60
2023/03/05 01:47:55;;;;;;;10.93;7.22;;;5.50;99.90;;;;;;5032731;28;20041;-59
2023/03/05 01:50:22;;;;;;;11.32;7.25;;;5.50;99.90;;;;;;5031481;28;20496;-60
2023/03/05 01:52:48;;;;;;;9.55;7.13;;;5.50;99.90;;;;;;5031488;28;20103;-59
2023/03/05 01:55:15;;;;;;;14.05;7.72;;;5.50;99.90;;;;;;5032792;28;20489;-60
2023/03/05 01:57:42;;;;;;;11.82;7.80;;;5.50;99.90;;;;;;5033046;28;20038;-58
2023/03/05 02:00:09;;;;;;;12.95;7.47;;;5.40;99.90;;;;;;5030682;28;20375;-60
2023/03/05 02:02:41;;;;;;;12.15;7.80;;;5.50;99.90;;;;;;5031505;28;20050;-57
2023/03/05 02:05:08;;;;;;;12.15;7.90;;;5.50;99.90;;;;;;5031517;28;20038;-58
2023/03/05 02:07:36;;;;;;;12.98;7.30;;;5.50;99.90;;;;;;5032738;28;20480;-58
2023/03/05 02:10:04;;;;;;;10.60;7.55;;;5.50;99.90;;;;;;5032123;28;20535;-56
2023/03/05 02:12:31;;;;;;;11.05;7.57;;;5.50;99.90;;;;;;5031243;28;20480;-59
2023/03/05 02:14:58;;;;;;;11.45;8.10;;;5.50;99.90;;;;;;5032376;28;20058;-58
2023/03/05 02:17:25;;;;;;;10.70;7.25;;;5.50;99.90;;;;;;5032762;28;20046;-52
2023/03/05 02:19:52;;;;;;;9.48;7.70;;;5.50;99.90;;;;;;5032174;28;20038;-59
2023/03/05 02:22:18;;;;;;;14.63;7.80;;;5.40;99.90;;;;;;5032546;28;20041;-59
2023/03/05 02:24:45;;;;;;;13.48;7.68;;;5.50;99.90;;;;;;5031362;28;20092;-55
2023/03/05 02:27:12;;;;;;;11.82;7.60;;;5.50;99.90;;;;;;5032345;28;20140;-53
2023/03/05 02:29:38;;;;;;;12.82;8.05;;;5.50;99.90;;;;;;5032452;28;20045;-57
2023/03/05 02:32:05;;;;;;;11.25;8.02;;;5.50;99.90;;;;;;5031241;28;20076;-60
2023/03/05 02:34:32;;;;;;;11.90;7.47;;;5.50;99.90;;;;;;5032500;28;20048;-59
2023/03/05 02:37:01;;;;;;;11.68;7.75;;;5.50;99.90;;;;;;5031433;28;20053;-61
2023/03/05 02:39:28;;;;;;;9.30;7.63;;;5.60;99.90;;;;;;5031226;28;20042;-59
2023/03/05 02:41:55;;;;;;;12.32;7.70;;;5.60;99.90;;;;;;5032258;28;20111;-61
2023/03/05 02:44:22;;;;;;;10.30;8.25;;;5.60;99.90;;;;;;5033210;28;20133;-61
2023/03/05 02:46:49;;;;;;;14.18;7.93;;;5.60;99.90;;;;;;5034887;28;20037;-61
2023/03/05 02:49:15;;;;;;;12.18;8.15;;;5.60;99.90;;;;;;5034779;28;20096;-57
2023/03/05 02:51:42;;;;;;;10.05;8.02;;;5.60;99.90;;;;;;5034423;28;20049;-60
2023/03/05 02:54:09;;;;;;;8.73;7.32;;;5.60;99.90;;;;;;5034344;28;20136;-60
2023/03/05 02:56:37;;;;;;;11.48;7.88;;;5.60;99.90;;;;;;5035593;28;20075;-60
2023/03/05 02:59:04;;;;;;;12.18;8.55;;;5.60;99.90;;;;;;5034431;28;20049;-60
2023/03/05 03:01:31;;;;;;;13.18;9.10;;;5.60;99.90;;;;;;5035250;28;20108;-56
2023/03/05 03:03:58;;;;;;;11.23;8.98;;;5.50;99.90;;;;;;5034198;28;20041;-58
2023/03/05 03:06:24;;;;;;;13.00;8.65;;;5.50;99.90;;;;;;5034317;28;20350;-61
2023/03/05 03:08:51;;;;;;;14.07;8.85;;;5.50;99.90;;;;;;5035346;28;20469;-59
2023/03/05 03:11:18;;;;;;;11.50;8.35;;;5.50;99.90;;;;;;5035488;28;20045;-61
2023/03/05 03:13:45;;;;;;;11.45;7.90;;;5.50;99.90;;;;;;5033353;28;20547;-61
2023/03/05 03:16:11;;;;;;;15.25;8.18;;;5.50;99.90;;;;;;5035197;28;20041;-57
2023/03/05 03:18:38;;;;;;;10.25;7.65;;;5.60;99.90;;;;;;5034901;28;20037;-59
2023/03/05 03:21:05;;;;;;;8.98;7.47;;;5.60;99.90;;;;;;5035096;28;20095;-56
2023/03/05 03:23:32;;;;;;;14.00;7.50;;;5.60;99.90;;;;;;5035328;28;20041;-56
2023/03/05 03:25:58;;;;;;;11.98;7.65;;;5.60;99.90;;;;;;5035158;28;20103;-59
2023/03/05 03:28:25;;;;;;;13.38;8.05;;;5.60;99.90;;;;;;5034792;28;20042;-59
2023/03/05 03:30:52;;;;;;;13.18;7.90;;;5.50;99.90;;;;;;5035044;28;20084;-57
2023/03/05 03:33:19;;;;;;;13.75;8.43;;;5.50;99.90;;;;;;5033509;28;20436;-59
2023/03/05 03:35:45;;;;;;;12.27;8.05;;;5.50;99.90;;;;;;5035027;28;20047;-58
2023/03/05 03:38:12;;;;;;;12.98;8.35;;;5.50;99.90;;;;;;5034841;28;20061;-58
2023/03/05 03:40:39;;;;;;;11.90;8.05;;;5.50;99.90;;;;;;5035291;28;20472;-58
2023/03/05 03:43:06;;;;;;;12.10;8.80;;;5.50;99.90;;;;;;5034755;28;20432;-55
2023/03/05 03:45:33;;;;;;;12.48;8.30;;;5.40;99.90;;;;;;5034748;28;20038;-55
2023/03/05 03:48:00;;;;;;;11.25;9.02;;;5.40;99.90;;;;;;5034637;28;20041;-60
2023/03/05 03:50:27;;;;;;;11.15;7.93;;;5.40;99.90;;;;;;5034387;28;20064;-58
2023/03/05 03:52:53;;;;;;;11.82;7.97;;;5.40;99.90;;;;;;5028270;28;20053;-58
2023/03/05 03:55:20;;;;;;;12.63;8.45;;;5.40;99.90;;;;;;5027854;28;20079;-60
2023/03/05 03:57:47;;;;;;;14.50;7.75;;;5.30;99.90;;;;;;5034358;28;20053;-57
2023/03/05 04:00:14;;;;;;;13.30;8.00;;;5.30;99.90;;;;;;5034441;28;20053;-59
2023/03/05 04:02:40;;;;;;;11.88;7.32;;;5.30;99.90;;;;;;5034467;28;20041;-57
2023/03/05 04:05:07;;;;;;;12.93;7.90;;;5.30;99.90;;;;;;5034216;28;20059;-54
2023/03/05 04:07:34;;;;;;;11.65;7.35;;;5.30;99.90;;;;;;5033404;28;20030;-61
2023/03/05 04:10:01;;;;;;;12.25;8.27;;;5.30;99.90;;;;;;5034615;28;20048;-59
2023/03/05 04:12:27;;;;;;;13.15;8.65;;;5.30;99.90;;;;;;5034230;28;20049;-60
2023/03/05 04:14:54;;;;;;;14.18;8.30;;;5.20;99.90;;;;;;5033932;28;20057;-59
2023/03/05 04:17:21;;;;;;;13.98;8.45;;;5.20;99.90;;;;;;5034250;28;20049;-60
2023/03/05 04:19:48;;;;;;;14.38;8.13;;;5.20;99.90;;;;;;5033957;28;20041;-57
2023/03/05 04:22:14;;;;;;;12.02;7.88;;;5.20;99.90;;;;;;5034158;28;20045;-57
2023/03/05 04:24:41;;;;;;;13.20;7.88;;;5.20;99.90;;;;;;5034090;28;20377;-57
2023/03/05 04:27:08;;;;;;;10.20;8.10;;;5.10;99.90;;;;;;5034001;28;20397;-56
2023/03/05 04:29:35;;;;;;;11.43;7.85;;;5.10;99.90;;;;;;5033973;28;20507;-59
2023/03/05 04:32:01;;;;;;;14.85;8.20;;;5.10;99.90;;;;;;5033805;28;20053;-60
2023/03/05 04:34:28;;;;;;;11.70;8.30;;;5.10;99.90;;;;;;5033786;28;20481;-60
2023/03/05 04:36:55;;;;;;;12.15;8.20;;;5.10;99.90;;;;;;5033776;28;20053;-59
2023/03/05 04:39:21;;;;;;;13.63;8.35;;;5.10;99.90;;;;;;5033214;28;20049;-59
2023/03/05 04:41:48;;;;;;;18.45;8.75;;;5.10;99.90;;;;;;5033621;28;20139;-60
2023/03/05 04:44:16;;;;;;;15.73;9.20;;;5.10;99.90;;;;;;5033600;28;20041;-56
2023/03/05 04:46:43;;;;;;;14.60;8.60;;;5.10;99.90;;;;;;5033427;28;20045;-57
2023/03/05 04:49:10;;;;;;;13.95;8.65;;;5.00;99.90;;;;;;5033569;28;20045;-57
2023/03/05 04:51:36;;;;;;;13.95;9.02;;;5.00;99.90;;;;;;5033468;28;20489;-60
2023/03/05 04:54:03;;;;;;;11.57;8.80;;;5.00;99.90;;;;;;5033501;28;20053;-60
2023/03/05 04:56:30;;;;;;;14.52;9.57;;;5.00;99.90;;;;;;5033474;28;20041;-58
2023/03/05 04:58:57;;;;;;;14.32;8.90;;;5.00;99.90;;;;;;5033461;28;20041;-56
2023/03/05 05:01:23;;;;;;;13.45;9.45;;;5.00;99.90;;;;;;5033289;28;20111;-58
2023/03/05 05:03:50;;;;;;;15.15;9.35;;;4.90;99.90;;;;;;5033267;28;20045;-58
2023/03/05 05:06:17;;;;;;;12.02;8.88;;;4.90;99.90;;;;;;5033003;28;20061;-60
2023/03/05 05:08:44;;;;;;;13.27;9.40;;;4.90;99.90;;;;;;5032942;28;20037;-57
2023/03/05 05:11:10;;;;;;;11.23;9.30;;;4.90;99.90;;;;;;5033441;28;20071;-55
2023/03/05 05:13:37;;;;;;;14.30;9.60;;;4.90;99.90;;;;;;5015054;28;20103;-58
2023/03/05 05:16:04;;;;;;;13.38;9.40;;;4.90;99.90;;;;;;5033138;28;20045;-59
2023/03/05 05:18:31;;;;;;;12.68;9.25;;;4.90;99.90;;;;;;5033336;28;20396;-57
2023/03/05 05:20:58;;;;;;;13.05;10.05;;;4.90;99.90;;;;;;5033061;28;20045;-59
2023/03/05 05:23:24;;;;;;;13.30;9.73;;;4.90;99.90;;;;;;5032914;28;20033;-58
2023/03/05 05:25:51;;;;;;;12.50;9.57;;;4.90;99.90;;;;;;5032648;28;20044;-60
2023/03/05 05:28:18;;;;;;;13.57;9.48;;;4.90;99.90;;;;;;5033244;28;20463;-59
2023/03/05 05:30:44;;;;;;;15.02;9.77;;;4.90;99.90;;;;;;5033069;28;20099;-59
2023/03/05 05:33:11;;;;;;;14.55;10.27;;;4.90;99.90;;;;;;5033141;28;20045;-60
2023/03/05 05:35:38;;;;;;;15.27;10.25;;;4.90;99.90;;;;;;5033116;28;20041;-58
2023/03/05 05:38:05;;;;;;;15.00;10.45;;;4.90;99.90;;;;;;5032870;28;20128;-58
2023/03/05 05:40:32;;;;;;;16.00;10.50;;;4.90;99.90;;;;;;5032743;28;20500;-60
2023/03/05 05:42:58;;;;;;;13.48;9.63;;;4.90;99.90;;;;;;5025990;28;20053;-61
2023/03/05 05:45:25;;;;;;;15.02;9.73;;;4.90;99.90;;;;;;5026387;28;20440;-60
2023/03/05 05:47:52;;;;;;;15.98;10.68;;;4.90;99.90;;;;;;5032926;28;20037;-57
2023/03/05 05:50:19;;;;;;;15.57;10.48;;;4.90;99.90;;;;;;5032450;28;20041;-59
2023/03/05 05:52:46;;;;;;;17.15;10.45;;;4.90;99.90;;;;;;5032603;28;20083;-57
2023/03/05 05:55:12;;;;;;;16.38;10.50;;;4.90;99.90;;;;;;5032780;28;20101;-57
2023/03/05 05:57:39;;;;;;;15.18;10.35;;;4.90;99.90;;;;;;5032889;28;20041;-59
2023/03/05 06:00:06;;;;;;;16.65;9.82;;;4.90;99.90;;;;;;5032736;28;20416;-58
2023/03/05 06:02:36;;;;;;;15.23;9.98;;;4.80;99.90;;;;;;5032659;28;20480;-59
2023/03/05 06:05:03;;;;;;;14.40;9.70;;;4.80;99.90;;;;;;5032801;28;20065;-55
2023/03/05 06:07:30;;;;;;;12.75;10.90;;;4.80;99.90;;;;;;5032200;28;20492;-60
2023/03/05 06:09:57;;;;;;;13.82;9.85;;;4.80;99.90;;;;;;5032665;28;20037;-58
2023/03/05 06:12:24;;;;;;;14.65;10.18;;;4.80;99.90;;;;;;5032554;28;20124;-60
2023/03/05 06:14:50;;;;;;;14.57;10.93;;;4.80;99.90;;;;;;5032433;28;20099;-57
2023/03/05 06:17:17;;;;;;;14.60;10.63;;;4.80;99.90;;;;;;5033972;28;20088;-59
2023/03/05 06:19:55;;;;;;;15.57;10.85;;;4.80;99.90;;;;;;5036416;28;20046;-60
2023/03/05 06:22:22;;;;;;;15.90;11.02;;;4.80;99.90;;;;;;5036238;28;20034;-58
2023/03/05 06:24:49;;;;;;;15.05;10.25;;;4.70;99.90;;;;;;5036253;28;20572;-54
2023/03/05 06:27:15;;;;;;;18.33;11.40;;;4.70;99.90;;;;;;5036133;28;20114;-59
2023/03/05 06:29:42;;;;;;;17.05;11.38;;;4.80;99.90;;;;;;5036389;28;20057;-55
2023/03/05 06:32:09;;;;;;;19.33;11.57;;;4.70;99.90;;;;;;5036270;28;20041;-55
2023/03/05 06:34:36;;;;;;;16.20;11.10;;;4.70;99.90;;;;;;5036166;28;20041;-59
2023/03/05 06:37:02;;;;;;;14.57;11.50;;;4.70;99.90;;;;;;5036236;28;20401;-58
2023/03/05 06:39:30;;;;;;;14.63;11.57;;;4.70;99.90;;;;;;5035949;28;20037;-56
2023/03/05 06:41:57;;;;;;;16.30;11.52;;;4.60;99.90;;;;;;5035935;28;20060;-56
2023/03/05 06:44:24;;;;;;;17.48;11.05;;;4.60;99.90;;;;;;5035631;28;20103;-59
2023/03/05 06:46:51;;;;;;;15.88;11.25;;;4.60;99.90;;;;;;5036165;28;20041;-59
2023/03/05 06:49:18;;;;;;;16.65;11.23;;;4.60;99.90;;;;;;5035969;28;20038;-54
2023/03/05 06:51:44;;;;;;;15.27;10.90;;;4.60;99.90;;;;;;5036133;28;20404;-59
2023/03/05 06:54:11;;;;;;;13.70;10.88;;;4.60;99.90;;;;;;5035614;28;20080;-60
2023/03/05 06:56:38;;;;;;;13.63;11.00;;;4.70;99.90;;;;;;5035871;28;20083;-56
2023/03/05 06:59:05;;;;;;;12.63;10.77;;;4.60;99.90;;;;;;5036011;28;20452;-56
2023/03/05 07:01:31;;;;;;;16.90;10.93;;;4.70;99.90;;;;;;5035539;28;20059;-61
2023/03/05 07:03:59;;;;;;;13.90;10.55;;;4.70;99.90;;;;;;5035559;28;20088;-58
2023/03/05 07:06:28;;;;;;;14.65;10.63;;;4.60;99.90;;;;;;5035730;28;20041;-53
2023/03/05 07:08:55;;;;;;;15.38;11.00;;;4.60;99.90;;;;;;5035793;28;20041;-58
2023/03/05 07:11:22;;;;;;;18.05;11.10;;;4.60;99.90;;;;;;5035328;28;20103;-54
2023/03/05 07:13:49;;;;;;;12.10;10.20;;;4.50;99.90;;;;;;5034979;28;20053;-52
2023/03/05 07:16:16;;;;;;;14.32;10.68;;;4.60;99.90;;;;;;5035261;28;20045;-53
2023/03/05 07:18:43;;;;;;;15.98;10.70;;;4.60;99.90;;;;;;5033964;28;20551;-59
2023/03/05 07:21:09;;;;;;;13.35;10.90;;;4.60;99.90;;;;;;5035062;28;20467;-54
2023/03/05 07:23:36;;;;;;;15.80;11.20;;;4.60;99.90;;;;;;5035080;28;20041;-59
2023/03/05 07:26:03;;;;;;;18.90;12.13;;;4.60;99.90;;;;;;5035257;28;20504;-60
2023/03/05 07:28:30;;;;;;;15.15;10.98;;;4.50;99.90;;;;;;5033915;28;20136;-54
2023/03/05 07:30:56;;;;;;;17.10;11.02;;;4.60;99.90;;;;;;5035346;28;20103;-57
2023/03/05 07:33:23;;;;;;;14.02;10.80;;;4.60;99.90;;;;;;5035036;28;20103;-56
2023/03/05 07:35:50;;;;;;;12.57;10.57;;;4.60;99.90;;;;;;5034909;28;20049;-58
2023/03/05 07:38:17;;;;;;;12.27;10.43;;;4.60;99.90;;;;;;5035092;28;20103;-59
2023/03/05 07:40:44;;;;;;;18.70;11.02;;;4.60;99.90;;;;;;5034958;28;20041;-59
2023/03/05 07:43:10;;;;;;;13.32;10.15;;;4.50;99.90;;;;;;5034930;28;20037;-59
2023/03/05 07:45:38;;;;;;;14.05;10.18;;;4.60;99.90;;;;;;5033731;28;20598;-58
2023/03/05 07:48:04;;;;;;;13.15;10.70;;;4.60;99.90;;;;;;5034838;28;20042;-59
2023/03/05 07:50:32;;;;;;;14.45;10.50;;;4.60;99.90;;;;;;5034881;28;20111;-59
2023/03/05 07:52:59;;;;;;;15.13;10.10;;;4.70;99.90;;;;;;5034740;28;20041;-56
2023/03/05 07:55:25;;;;;;;12.45;10.32;;;4.70;99.90;;;;;;5033460;28;20511;-57
2023/03/05 07:57:52;;;;;;;12.27;9.88;;;4.70;99.90;;;;;;5034755;28;20045;-57
2023/03/05 08:00:19;;;;;;;12.35;9.68;;;4.70;99.90;;;;;;5034567;28;20389;-58
2023/03/05 08:02:46;;;;;;;13.07;9.88;;;4.70;99.90;;;;;;5033195;28;20096;-58
2023/03/05 08:05:13;;;;;;;13.35;10.25;;;4.70;99.90;;;;;;5034836;28;20060;-57
2023/03/05 08:07:40;;;;;;;13.05;9.85;;;4.70;99.90;;;;;;5034495;28;20033;-57
2023/03/05 08:10:07;;;;;;;13.60;9.85;;;4.70;99.90;;;;;;5034626;28;20511;-59
2023/03/05 08:12:34;;;;;;;13.07;10.10;;;4.70;99.90;;;;;;5034461;28;20496;-59
2023/03/05 08:15:00;;;;;;;11.43;9.43;;;4.70;99.90;;;;;;5034197;28;20111;-60
2023/03/05 08:17:27;;;;;;;13.23;9.80;;;4.80;99.90;;;;;;5034300;28;20048;-60
2023/03/05 08:19:57;;;;;;;13.52;10.10;;;4.80;99.90;;;;;;5034181;28;20045;-58
2023/03/05 08:22:23;;;;;;;14.00;9.98;;;4.80;99.90;;;;;;5033008;28;20061;-59
2023/03/05 08:24:51;;;;;;;13.38;10.18;;;4.80;99.90;;;;;;5026973;28;20041;-58
2023/03/05 08:27:17;;;;;;;14.45;10.65;;;4.80;99.90;;;;;;5034351;28;20045;-58
2023/03/05 08:29:44;;;;;;;13.50;9.80;;;4.80;99.90;;;;;;5033905;28;20065;-55
2023/03/05 08:32:11;;;;;;;16.67;10.57;;;4.90;99.90;;;;;;5034034;28;20037;-55
2023/03/05 08:34:37;;;;;;;13.60;10.23;;;4.90;99.90;;;;;;5033800;28;20037;-59
2023/03/05 08:37:06;;;;;;;13.02;10.95;;;4.80;99.90;;;;;;5033974;28;20937;-61
2023/03/05 08:39:33;;;;;;;13.98;10.18;;;4.80;99.90;;;;;;5032531;28;20037;-58
2023/03/05 08:42:00;;;;;;;14.20;10.27;;;4.90;99.90;;;;;;5032927;28;20049;-59
2023/03/05 08:44:26;;;;;;;15.25;10.05;;;4.90;99.90;;;;;;5031913;28;21022;-56
2023/03/05 08:46:53;;;;;;;14.02;10.52;;;4.90;99.90;;;;;;5033388;28;20037;-57
2023/03/05 08:49:24;;;;;;;12.77;10.43;;;5.00;99.90;;;;;;5013980;28;20492;-60
2023/03/05 08:51:51;;;;;;;16.60;10.55;;;5.00;99.90;;;;;;5033167;28;20088;-60
2023/03/05 08:54:18;;;;;;;13.23;10.43;;;5.00;99.90;;;;;;5033334;28;20107;-57
2023/03/05 08:56:44;;;;;;;13.88;10.55;;;5.10;99.90;;;;;;5031507;28;20091;-60
2023/03/05 08:59:11;;;;;;;14.00;10.75;;;5.00;99.90;;;;;;5032622;28;20095;-58
2023/03/05 09:01:39;;;;;;;14.05;10.98;;;5.00;99.90;;;;;;5030092;28;20065;-56
2023/03/05 09:04:06;;;;;;;14.65;11.02;;;5.10;99.90;;;;;;5033477;28;20050;-58
2023/03/05 09:06:33;;;;;;;16.77;12.15;;;5.20;99.90;;;;;;5033476;28;20048;-57
2023/03/05 09:09:00;;;;;;;16.20;12.27;;;5.10;99.90;;;;;;5033873;28;20110;-59
2023/03/05 09:11:27;;;;;;;17.10;11.75;;;5.20;99.90;;;;;;5032890;28;20046;-54
2023/03/05 09:13:54;;;;;;;17.48;11.95;;;5.10;99.90;;;;;;5033034;28;21956;-56
2023/03/05 09:16:20;;;;;;;15.10;12.18;;;5.10;99.90;;;;;;5033451;28;20076;-57
2023/03/05 09:18:47;;;;;;;15.20;11.65;;;5.10;99.90;;;;;;5031641;28;20045;-57
2023/03/05 09:21:14;;;;;;;13.35;11.85;;;5.20;99.90;;;;;;5033155;28;20087;-56
2023/03/05 09:23:41;;;;;;;16.83;13.02;;;5.20;99.50;;;;;;5033270;28;20056;-59
2023/03/05 09:26:08;;;;;;;17.08;13.13;;;5.20;99.70;;;;;;5031872;28;20075;-59
2023/03/05 09:28:34;;;;;;;17.25;12.98;;;5.30;99.80;;;;;;5033373;28;20443;-59
2023/03/05 09:31:01;;;;;;;19.08;13.20;;;5.30;99.60;;;;;;5033103;28;20475;-58
2023/03/05 09:33:28;;;;;;;15.88;13.05;;;5.20;99.30;;;;;;5031790;28;20052;-59
2023/03/05 09:35:55;;;;;;;15.10;13.48;;;5.30;99.70;;;;;;5032383;28;20057;-58
2023/03/05 09:38:22;;;;;;;19.40;14.32;;;5.30;99.50;;;;;;5031949;28;20058;-60
2023/03/05 09:40:49;;;;;;;15.90;13.85;;;5.40;99.40;;;;;;5036220;28;20034;-55
2023/03/05 09:43:15;;;;;;;18.77;14.35;;;5.40;99.20;;;;;;5031880;28;20049;-60
2023/03/05 09:45:42;;;;;;;16.40;14.15;;;5.40;99.30;;;;;;5033181;28;20385;-59
2023/03/05 09:48:09;;;;;;;16.92;14.02;;;5.50;99.20;;;;;;5033076;28;20049;-59
2023/03/05 09:50:36;;;;;;;18.05;14.30;;;5.50;99.50;;;;;;5032396;28;20033;-60
2023/03/05 09:53:03;;;;;;;18.77;14.45;;;5.50;99.10;;;;;;5034325;28;20038;-59
2023/03/05 09:55:29;;;;;;;16.77;14.25;;;5.50;98.90;;;;;;5037174;28;20037;-57
2023/03/05 09:57:56;;;;;;;16.85;14.75;;;5.50;99.00;;;;;;5036976;28;20520;-61
2023/03/05 10:00:23;;;;;;;21.52;15.30;;;5.40;99.20;;;;;;5037290;28;20064;-57
2023/03/05 10:02:50;;;;;;;21.38;15.60;;;5.40;99.00;;;;;;5036157;28;20052;-59
2023/03/05 10:05:16;;;;;;;19.08;15.80;;;5.60;99.50;;;;;;5035484;28;20769;-59
2023/03/05 10:07:44;;;;;;;20.30;15.32;;;5.70;98.80;;;;;;5035614;28;20103;-60
2023/03/05 10:10:10;;;;;;;17.05;14.70;;;5.80;98.90;;;;;;5034047;28;20447;-59
2023/03/05 10:12:41;;;;;;;16.63;14.43;;;5.70;98.20;;;;;;5035554;28;20059;-59
2023/03/05 10:15:08;;;;;;;18.02;14.85;;;5.80;98.90;;;;;;5035573;28;20053;-60
2023/03/05 10:17:35;;;;;;;18.85;15.10;;;5.80;99.00;;;;;;5035457;28;20463;-59
2023/03/05 10:20:03;;;;;;;19.33;15.43;;;6.00;98.40;;;;;;5036474;28;20045;-58
2023/03/05 10:22:30;;;;;;;19.85;16.00;;;6.00;98.20;;;;;;5035822;28;20147;-59
2023/03/05 10:24:56;;;;;;;19.42;16.27;;;5.90;98.40;;;;;;5036439;28;20057;-60
2023/03/05 10:27:23;;;;;;;20.80;16.48;;;5.90;98.80;;;;;;5036042;28;20044;-57
2023/03/05 10:29:50;;;;;;;19.33;16.90;;;6.10;98.60;;;;;;5036413;28;20052;-59
2023/03/05 10:32:16;;;;;;;21.38;17.02;;;6.10;98.20;;;;;;5036674;28;20080;-56
2023/03/05 10:34:43;;;;;;;27.20;17.38;;;6.20;98.70;;;;;;5035752;28;20550;-58
2023/03/05 10:37:10;;;;;;;22.33;17.15;;;6.20;98.10;;;;;;5036035;28;20038;-60
2023/03/05 10:39:37;;;;;;;22.90;17.20;;;6.30;97.90;;;;;;5035785;28;20124;-58
2023/03/05 10:42:04;;;;;;;24.73;17.80;;;6.30;98.00;;;;;;5036100;28;20124;-59
2023/03/05 10:44:31;;;;;;;21.65;17.80;;;6.20;98.00;;;;;;5029589;28;20041;-59
2023/03/05 10:46:58;;;;;;;22.75;18.23;;;6.20;98.10;;;;;;5035070;28;20045;-58
2023/03/05 10:49:25;;;;;;;20.70;17.88;;;6.30;98.50;;;;;;5029711;28;20042;-58
2023/03/05 10:51:52;;;;;;;20.13;16.98;;;6.40;98.20;;;;;;5035564;28;20045;-56
2023/03/05 10:54:19;;;;;;;19.02;16.02;;;6.40;98.00;;;;;;5036031;28;20172;-58
2023/03/05 10:56:45;;;;;;;19.52;16.45;;;6.40;97.70;;;;;;5035739;28;20096;-58
2023/03/05 10:59:12;;;;;;;19.92;16.40;;;6.40;97.60;;;;;;5036149;28;20047;-57
2023/03/05 11:01:39;;;;;;;21.35;16.58;;;6.50;97.40;;;;;;5035783;28;20046;-59
2023/03/05 11:04:06;;;;;;;20.15;17.25;;;6.50;97.30;;;;;;5034638;28;20033;-58
2023/03/05 11:06:32;;;;;;;19.63;16.95;;;6.50;97.40;;;;;;5035771;28;20045;-59
2023/03/05 11:08:59;;;;;;;21.85;17.50;;;6.50;97.10;;;;;;5035697;28;20041;-57
2023/03/05 11:11:27;;;;;;;21.48;17.10;;;6.50;97.20;;;;;;5035623;28;20052;-59
2023/03/05 11:13:54;;;;;;;17.23;14.88;;;6.60;97.00;;;;;;5034898;28;20063;-59
2023/03/05 11:16:21;;;;;;;20.33;16.80;;;6.50;96.40;;;;;;5035694;28;20508;-59
2023/03/05 11:18:48;;;;;;;21.55;16.95;;;6.60;96.70;;;;;;5033632;28;20049;-59
2023/03/05 11:21:14;;;;;;;19.92;17.40;;;6.60;96.70;;;;;;5035427;28;20458;-58
2023/03/05 11:23:41;;;;;;;21.35;16.70;;;6.60;96.60;;;;;;5034631;28;20045;-57
2023/03/05 11:26:08;;;;;;;22.10;17.65;;;6.50;96.60;;;;;;5035731;28;20056;-58
2023/03/05 11:28:35;;;;;;;22.75;18.52;;;6.60;96.50;;;;;;5035210;28;20042;-58
2023/03/05 11:31:01;;;;;;;21.55;16.80;;;6.70;96.70;;;;;;5034707;28;20034;-58
2023/03/05 11:33:28;;;;;;;19.55;17.35;;;6.80;96.50;;;;;;5035229;28;20084;-58
2023/03/05 11:35:55;;;;;;;24.33;18.35;;;6.70;96.30;;;;;;5030528;28;20042;-58
2023/03/05 11:38:23;;;;;;;21.52;17.92;;;6.80;96.30;;;;;;5035284;28;20041;-58
2023/03/05 11:40:50;;;;;;;21.23;18.17;;;6.80;96.30;;;;;;5034919;28;20034;-59
2023/03/05 11:43:17;;;;;;;20.35;17.77;;;6.90;96.00;;;;;;5034423;28;20107;-56
2023/03/05 11:45:44;;;;;;;26.77;21.05;;;6.90;96.10;;;;;;5026655;28;20618;-57
2023/03/05 11:48:10;;;;;;;23.00;18.60;;;6.80;95.90;;;;;;5028337;28;20052;-55
2023/03/05 11:50:37;;;;;;;24.08;19.65;;;6.70;95.80;;;;;;5033017;28;20049;-58
2023/03/05 11:53:06;;;;;;;20.92;17.88;;;6.70;96.30;;;;;;5033638;28;20511;-55
2023/03/05 11:55:33;;;;;;;23.10;18.33;;;6.80;95.80;;;;;;5034329;28;20041;-55
2023/03/05 11:58:00;;;;;;;20.08;17.05;;;6.90;96.20;;;;;;5035085;28;20164;-57
2023/03/05 12:00:27;;;;;;;24.35;18.98;;;6.90;96.10;;;;;;5034715;28;20041;-57
2023/03/05 12:02:53;;;;;;;30.13;22.33;;;7.00;95.90;;;;;;5034501;28;20029;-55
2023/03/05 12:05:20;;;;;;;25.27;19.55;;;7.00;96.20;;;;;;5034093;28;20036;-55
2023/03/05 12:07:47;;;;;;;25.00;20.52;;;7.00;95.90;;;;;;5029979;28;20038;-56
2023/03/05 12:10:14;;;;;;;24.50;20.65;;;7.00;96.30;;;;;;5031862;28;20049;-60
2023/03/05 12:12:41;;;;;;;24.38;20.08;;;6.90;96.10;;;;;;5033432;28;21259;-55
2023/03/05 12:15:08;;;;;;;23.23;18.77;;;6.80;96.10;;;;;;5033888;28;20053;-59
2023/03/05 12:17:35;;;;;;;19.30;15.45;;;6.90;95.90;;;;;;5033169;28;20041;-60
2023/03/05 12:20:05;;;;;;;19.15;15.45;;;6.90;95.20;;;;;;5034363;28;20081;-58
2023/03/05 12:22:33;;;;;;;20.70;16.45;;;6.90;95.50;;;;;;5034077;28;20041;-55
2023/03/05 12:25:00;;;;;;;20.33;16.95;;;7.00;95.30;;;;;;5032621;28;20057;-55
2023/03/05 12:27:27;;;;;;;24.02;18.42;;;6.90;95.50;;;;;;5034232;28;20076;-56
2023/03/05 12:29:53;;;;;;;20.92;16.88;;;6.80;94.50;;;;;;5032955;28;20048;-60
2023/03/05 12:32:20;;;;;;;22.13;18.65;;;6.60;95.00;;;;;;5034220;28;20037;-56
2023/03/05 12:34:47;;;;;;;22.17;17.60;;;6.60;95.90;;;;;;5034475;28;20045;-57
2023/03/05 12:37:14;;;;;;;21.40;17.15;;;6.70;95.60;;;;;;5034283;28;20046;-59
2023/03/05 12:39:41;;;;;;;21.23;17.63;;;6.70;95.70;;;;;;5034209;28;20061;-58